sensor_id;sensor_type;location;lat;lon;timestamp;pressure;altitude;pressure_sealevel;temperature;humidity
19843;BME280;10082;51.038;6.992;2023-04-15T00:00:31;112171.53;;;-144.33;100.00
19843;BME280;10082;51.038;6.992;2023-04-15T00:02:58;112171.53;;;-144.33;100.00
19843;BME280;10082;51.038;6.992;2023-04-15T00:05:28;112171.53;;;-144.33;100.00
19843;BME280;10082;51.038;6.992;2023-04-15T00:07:56;112171.53;;;-144.33;100.00
19843;BME280;10082;51.038;6.992;2023-04-15T00:10:24;112171.53;;;-144.33;100.00
19843;BME280;10082;51.038;6.992;2023-04-15T00:12:51;112171.53;;;-144.33;100.00
19843;BME280;10082;51.038;6.992;2023-04-15T00:15:18;112171.53;;;-144.33;100.00
19843;BME280;10082;51.038;6.992;2023-04-15T00:17:49;112171.53;;;-144.33;100.00
19843;BME280;10082;51.038;6.992;2023-04-15T00:20:17;112171.53;;;-144.33;100.00
19843;BME280;10082;51.038;6.992;2023-04-15T00:22:46;112171.53;;;-144.33;100.00
19843;BME280;10082;51.038;6.992;2023-04-15T00:25:13;112171.53;;;-144.33;100.00
19843;BME280;10082;51.038;6.992;2023-04-15T00:27:40;112171.53;;;-144.33;100.00
19843;BME280;10082;51.038;6.992;2023-04-15T00:30:07;112171.53;;;-144.33;100.00
19843;BME280;10082;51.038;6.992;2023-04-15T00:32:35;112171.53;;;-144.33;100.00
19843;BME280;10082;51.038;6.992;2023-04-15T00:35:03;112171.53;;;-144.33;100.00
19843;BME280;10082;51.038;6.992;2023-04-15T00:37:30;112171.53;;;-144.33;100.00
19843;BME280;10082;51.038;6.992;2023-04-15T00:40:01;112171.53;;;-144.33;100.00
19843;BME280;10082;51.038;6.992;2023-04-15T00:42:30;112171.53;;;-144.33;100.00
19843;BME280;10082;51.038;6.992;2023-04-15T00:44:57;112171.53;;;-144.33;100.00
19843;BME280;10082;51.038;6.992;2023-04-15T00:47:25;112171.53;;;-144.33;100.00
19843;BME280;10082;51.038;6.992;2023-04-15T00:49:55;112171.53;;;-144.33;100.00
19843;BME280;10082;51.038;6.992;2023-04-15T00:52:22;112171.53;;;-144.33;100.00
19843;BME280;10082;51.038;6.992;2023-04-15T00:54:50;112171.53;;;-144.33;100.00
19843;BME280;10082;51.038;6.992;2023-04-15T00:57:20;112171.53;;;-144.33;100.00
19843;BME280;10082;51.038;6.992;2023-04-15T00:59:47;112171.53;;;-144.33;100.00
19843;BME280;10082;51.038;6.992;2023-04-15T01:02:15;112171.53;;;-144.33;100.00
19843;BME280;10082;51.038;6.992;2023-04-15T01:04:42;112171.53;;;-144.33;100.00
19843;BME280;10082;51.038;6.992;2023-04-15T01:07:09;112171.53;;;-144.33;100.00
19843;BME280;10082;51.038;6.992;2023-04-15T01:09:36;112004.47;;;-144.33;100.00
19843;BME280;10082;51.038;6.992;2023-04-15T01:12:05;111533.47;;;-144.33;100.00
19843;BME280;10082;51.038;6.992;2023-04-15T01:14:34;110823.06;;;-144.33;100.00
19843;BME280;10082;51.038;6.992;2023-04-15T01:17:02;110338.13;;;-144.33;100.00
19843;BME280;10082;51.038;6.992;2023-04-15T01:19:29;109418.72;;;-144.33;100.00
19843;BME280;10082;51.038;6.992;2023-04-15T01:21:56;108087.22;;;-144.33;100.00
19843;BME280;10082;51.038;6.992;2023-04-15T01:24:25;105913.97;;;-144.33;100.00
19843;BME280;10082;51.038;6.992;2023-04-15T01:26:55;103721.75;;;-144.33;100.00
19843;BME280;10082;51.038;6.992;2023-04-15T01:29:23;101434.38;;;-144.33;100.00
19843;BME280;10082;51.038;6.992;2023-04-15T01:31:50;99108.13;;;-144.33;100.00
19843;BME280;10082;51.038;6.992;2023-04-15T01:34:18;96492.47;;;-144.33;100.00
19843;BME280;10082;51.038;6.992;2023-04-15T01:36:45;94219.19;;;-144.33;100.00
19843;BME280;10082;51.038;6.992;2023-04-15T01:39:13;91822.97;;;-144.33;100.00
19843;BME280;10082;51.038;6.992;2023-04-15T01:41:40;89178.00;;;-144.33;100.00
19843;BME280;10082;51.038;6.992;2023-04-15T01:44:09;86918.81;;;-144.33;100.00
19843;BME280;10082;51.038;6.992;2023-04-15T01:46:38;84718.91;;;-144.33;100.00
19843;BME280;10082;51.038;6.992;2023-04-15T01:49:06;82554.16;;;-144.33;100.00
19843;BME280;10082;51.038;6.992;2023-04-15T01:51:33;80514.38;;;-144.33;100.00
19843;BME280;10082;51.038;6.992;2023-04-15T01:54:01;78230.13;;;-144.33;100.00
19843;BME280;10082;51.038;6.992;2023-04-15T01:56:29;76587.63;;;-144.33;100.00
19843;BME280;10082;51.038;6.992;2023-04-15T01:58:56;74706.47;;;-144.33;100.00
19843;BME280;10082;51.038;6.992;2023-04-15T02:01:30;72395.63;;;-144.33;100.00
19843;BME280;10082;51.038;6.992;2023-04-15T02:03:58;70034.31;;;-144.33;100.00
19843;BME280;10082;51.038;6.992;2023-04-15T02:06:25;67562.91;;;-144.33;100.00
19843;BME280;10082;51.038;6.992;2023-04-15T02:08:54;66497.97;;;-144.33;100.00
19843;BME280;10082;51.038;6.992;2023-04-15T02:11:21;64551.91;;;-144.33;100.00
19843;BME280;10082;51.038;6.992;2023-04-15T02:13:49;63151.66;;;-144.33;100.00
19843;BME280;10082;51.038;6.992;2023-04-15T02:16:17;61670.41;;;-144.33;100.00
19843;BME280;10082;51.038;6.992;2023-04-15T02:18:47;59907.53;;;-144.33;100.00
19843;BME280;10082;51.038;6.992;2023-04-15T02:21:16;57450.34;;;-144.33;100.00
19843;BME280;10082;51.038;6.992;2023-04-15T02:23:46;54417.22;;;-144.33;100.00
19843;BME280;10082;51.038;6.992;2023-04-15T02:26:14;52340.25;;;-144.33;100.00
19843;BME280;10082;51.038;6.992;2023-04-15T02:28:41;50450.69;;;-144.33;100.00
19843;BME280;10082;51.038;6.992;2023-04-15T02:31:08;48421.34;;;-144.33;100.00
19843;BME280;10082;51.038;6.992;2023-04-15T02:33:35;46181.16;;;-144.33;100.00
19843;BME280;10082;51.038;6.992;2023-04-15T02:36:04;43467.34;;;-144.33;100.00
19843;BME280;10082;51.038;6.992;2023-04-15T02:38:32;41758.03;;;-144.33;100.00
19843;BME280;10082;51.038;6.992;2023-04-15T02:41:00;40181.97;;;-144.33;100.00
19843;BME280;10082;51.038;6.992;2023-04-15T02:43:28;38464.22;;;-144.33;100.00
19843;BME280;10082;51.038;6.992;2023-04-15T02:45:58;36603.00;;;-144.33;100.00
19843;BME280;10082;51.038;6.992;2023-04-15T02:48:26;34454.44;;;-144.33;100.00
19843;BME280;10082;51.038;6.992;2023-04-15T02:50:53;32595.16;;;-144.33;100.00
19843;BME280;10082;51.038;6.992;2023-04-15T02:53:38;30334.38;;;-144.33;100.00
19843;BME280;10082;51.038;6.992;2023-04-15T02:56:06;28615.03;;;-144.33;100.00
19843;BME280;10082;51.038;6.992;2023-04-15T02:58:34;26462.97;;;-144.33;100.00
19843;BME280;10082;51.038;6.992;2023-04-15T03:01:01;23581.59;;;-144.33;100.00
19843;BME280;10082;51.038;6.992;2023-04-15T03:03:28;21249.31;;;-144.33;100.00
19843;BME280;10082;51.038;6.992;2023-04-15T03:05:56;20470.22;;;-144.33;100.00
19843;BME280;10082;51.038;6.992;2023-04-15T03:08:23;19211.44;;;-144.33;100.00
19843;BME280;10082;51.038;6.992;2023-04-15T03:10:52;17953.03;;;-144.33;100.00
19843;BME280;10082;51.038;6.992;2023-04-15T03:13:20;16695.03;;;-144.33;100.00
19843;BME280;10082;51.038;6.992;2023-04-15T03:15:49;15688.94;;;-144.33;100.00
19843;BME280;10082;51.038;6.992;2023-04-15T03:18:16;14934.56;;;-144.33;100.00
19843;BME280;10082;51.038;6.992;2023-04-15T03:20:44;13677.53;;;-144.33;100.00
19843;BME280;10082;51.038;6.992;2023-04-15T03:23:12;12672.22;;;-144.33;100.00
19843;BME280;10082;51.038;6.992;2023-04-15T03:25:39;11918.41;;;-144.33;100.00
19843;BME280;10082;51.038;6.992;2023-04-15T03:28:09;10913.56;;;-144.33;100.00
19843;BME280;10082;51.038;6.992;2023-04-15T03:30:36;10160.09;;;-144.33;100.00
19843;BME280;10082;51.038;6.992;2023-04-15T03:33:03;9657.84;;;-144.33;100.00
19843;BME280;10082;51.038;6.992;2023-04-15T03:35:31;8653.56;;;-144.33;100.00
19843;BME280;10082;51.038;6.992;2023-04-15T03:37:58;7649.56;;;-144.33;100.00
19843;BME280;10082;51.038;6.992;2023-04-15T03:40:26;6896.72;;;-144.33;100.00
19843;BME280;10082;51.038;6.992;2023-04-15T03:42:53;5642.31;;;-144.33;100.00
19843;BME280;10082;51.038;6.992;2023-04-15T03:45:22;4639.09;;;-144.33;100.00
19843;BME280;10082;51.038;6.992;2023-04-15T03:47:49;4137.56;;;-144.33;100.00
19843;BME280;10082;51.038;6.992;2023-04-15T03:50:16;3385.41;;;-144.33;100.00
19843;BME280;10082;51.038;6.992;2023-04-15T03:52:43;2884.06;;;-144.33;100.00
19843;BME280;10082;51.038;6.992;2023-04-15T03:55:11;2382.78;;;-144.33;100.00
19843;BME280;10082;51.038;6.992;2023-04-15T03:57:38;1881.56;;;-144.33;100.00
19843;BME280;10082;51.038;6.992;2023-04-15T04:00:07;1380.41;;;-144.33;100.00
19843;BME280;10082;51.038;6.992;2023-04-15T04:02:39;1380.41;;;-144.33;100.00
19843;BME280;10082;51.038;6.992;2023-04-15T04:05:07;1129.84;;;-144.33;100.00
19843;BME280;10082;51.038;6.992;2023-04-15T04:07:35;1129.84;;;-144.33;100.00
19843;BME280;10082;51.038;6.992;2023-04-15T04:10:02;879.31;;;-144.33;100.00
19843;BME280;10082;51.038;6.992;2023-04-15T04:12:29;127.78;;;-144.33;100.00
19843;BME280;10082;51.038;6.992;2023-04-15T04:14:56;-122.69;;;-144.33;100.00
19843;BME280;10082;51.038;6.992;2023-04-15T04:17:24;-373.16;;;-144.33;100.00
19843;BME280;10082;51.038;6.992;2023-04-15T04:19:53;-623.59;;;-144.33;100.00
19843;BME280;10082;51.038;6.992;2023-04-15T04:22:21;-1374.81;;;-144.33;100.00
19843;BME280;10082;51.038;6.992;2023-04-15T04:24:49;-1875.56;;;-144.33;100.00
19843;BME280;10082;51.038;6.992;2023-04-15T04:27:16;-2626.53;;;-144.33;100.00
19843;BME280;10082;51.038;6.992;2023-04-15T04:29:44;-2876.84;;;-144.33;100.00
19843;BME280;10082;51.038;6.992;2023-04-15T04:32:12;-3127.09;;;-144.33;100.00
19843;BME280;10082;51.038;6.992;2023-04-15T04:34:39;-3377.38;;;-144.33;100.00
19843;BME280;10082;51.038;6.992;2023-04-15T04:37:07;-3377.38;;;-144.33;100.00
19843;BME280;10082;51.038;6.992;2023-04-15T04:39:34;-3627.63;;;-144.33;100.00
19843;BME280;10082;51.038;6.992;2023-04-15T04:42:02;-3877.84;;;-144.33;100.00
19843;BME280;10082;51.038;6.992;2023-04-15T04:44:30;-4128.06;;;-144.33;100.00
19843;BME280;10082;51.038;6.992;2023-04-15T04:46:57;-4878.59;;;-144.33;100.00
19843;BME280;10082;51.038;6.992;2023-04-15T04:49:24;-5128.75;;;-144.33;100.00
19843;BME280;10082;51.038;6.992;2023-04-15T04:51:52;-5128.75;;;-144.33;100.00
19843;BME280;10082;51.038;6.992;2023-04-15T04:54:20;-5128.75;;;-144.33;100.00
19843;BME280;10082;51.038;6.992;2023-04-15T04:56:48;-5378.88;;;-144.33;100.00
19843;BME280;10082;51.038;6.992;2023-04-15T04:59:15;-5629.00;;;-144.33;100.00
19843;BME280;10082;51.038;6.992;2023-04-15T05:01:43;-5879.09;;;-144.33;100.00
19843;BME280;10082;51.038;6.992;2023-04-15T05:04:10;-6379.25;;;-144.33;100.00
19843;BME280;10082;51.038;6.992;2023-04-15T05:06:37;-6629.28;;;-144.33;100.00
19843;BME280;10082;51.038;6.992;2023-04-15T05:09:05;-7129.34;;;-144.33;100.00
19843;BME280;10082;51.038;6.992;2023-04-15T05:11:34;-7129.34;;;-144.33;100.00
19843;BME280;10082;51.038;6.992;2023-04-15T05:14:03;-7379.34;;;-144.33;100.00
19843;BME280;10082;51.038;6.992;2023-04-15T05:16:30;-7879.31;;;-144.33;100.00
19843;BME280;10082;51.038;6.992;2023-04-15T05:18:57;-8129.25;;;-144.33;100.00
19843;BME280;10082;51.038;6.992;2023-04-15T05:21:24;-8379.19;;;-144.33;100.00
19843;BME280;10082;51.038;6.992;2023-04-15T05:23:52;-8629.13;;;-144.33;100.00
19843;BME280;10082;51.038;6.992;2023-04-15T05:26:19;-8879.00;;;-144.33;100.00
19843;BME280;10082;51.038;6.992;2023-04-15T05:28:48;-9378.78;;;-144.33;100.00
19843;BME280;10082;51.038;6.992;2023-04-15T05:31:15;-9378.78;;;-144.33;100.00
19843;BME280;10082;51.038;6.992;2023-04-15T05:33:42;-9878.47;;;-144.33;100.00
19843;BME280;10082;51.038;6.992;2023-04-15T05:39:13;-10128.28;;;-144.33;100.00
19843;BME280;10082;51.038;6.992;2023-04-15T05:41:40;-10378.09;;;-144.33;100.00
19843;BME280;10082;51.038;6.992;2023-04-15T05:44:09;-10627.88;;;-144.33;100.00
19843;BME280;10082;51.038;6.992;2023-04-15T05:46:36;-11127.41;;;-144.33;100.00
19843;BME280;10082;51.038;6.992;2023-04-15T05:49:04;-11626.88;;;-144.33;100.00
19843;BME280;10082;51.038;6.992;2023-04-15T05:51:31;-11876.59;;;-144.33;100.00
19843;BME280;10082;51.038;6.992;2023-04-15T05:53:58;-12375.97;;;-144.33;100.00
19843;BME280;10082;51.038;6.992;2023-04-15T05:56:25;-12375.97;;;-144.33;100.00
19843;BME280;10082;51.038;6.992;2023-04-15T05:58:53;-12625.63;;;-144.33;100.00
19843;BME280;10082;51.038;6.992;2023-04-15T06:01:22;-12625.63;;;-144.33;100.00
19843;BME280;10082;51.038;6.992;2023-04-15T06:03:50;-12375.97;;;-144.33;100.00
19843;BME280;10082;51.038;6.992;2023-04-15T06:06:17;-11876.59;;;-144.33;100.00
19843;BME280;10082;51.038;6.992;2023-04-15T06:08:44;-11876.59;;;-144.33;100.00
19843;BME280;10082;51.038;6.992;2023-04-15T06:11:12;-10877.66;;;-144.33;100.00
19843;BME280;10082;51.038;6.992;2023-04-15T06:13:39;-10128.28;;;-144.33;100.00
19843;BME280;10082;51.038;6.992;2023-04-15T06:16:07;-8879.00;;;-144.33;100.00
19843;BME280;10082;51.038;6.992;2023-04-15T06:18:36;-8129.25;;;-144.33;100.00
19843;BME280;10082;51.038;6.992;2023-04-15T06:21:03;-8379.19;;;-144.33;100.00
19843;BME280;10082;51.038;6.992;2023-04-15T06:23:33;-6379.25;;;-144.33;100.00
19843;BME280;10082;51.038;6.992;2023-04-15T06:26:01;-623.59;;;-144.33;100.00
19843;BME280;10082;51.038;6.992;2023-04-15T06:28:28;5893.16;;;-144.33;100.00
19843;BME280;10082;51.038;6.992;2023-04-15T06:30:55;8653.56;;;-144.33;100.00
19843;BME280;10082;51.038;6.992;2023-04-15T06:33:23;17449.78;;;-144.33;100.00
19843;BME280;10082;51.038;6.992;2023-04-15T06:35:52;35607.56;;;-144.33;100.00
19843;BME280;10082;51.038;6.992;2023-04-15T06:38:19;46492.06;;;-144.33;100.00
19843;BME280;10082;51.038;6.992;2023-04-15T06:40:46;52326.38;;;-144.33;100.00
19843;BME280;10082;51.038;6.992;2023-04-15T06:43:14;66567.63;;;-144.33;100.00
19843;BME280;10082;51.038;6.992;2023-04-15T06:45:42;79581.75;;;-144.33;100.00
19843;BME280;10082;51.038;6.992;2023-04-15T06:48:09;88793.72;;;-144.33;100.00
19843;BME280;10082;51.038;6.992;2023-04-15T06:50:36;100081.41;;;-144.33;100.00
19843;BME280;10082;51.038;6.992;2023-04-15T06:53:05;105618.50;;;-144.33;100.00
19843;BME280;10082;51.038;6.992;2023-04-15T06:55:35;110293.88;;;-144.33;100.00
19843;BME280;10082;51.038;6.992;2023-04-15T06:58:03;112171.53;;;-144.33;100.00
19843;BME280;10082;51.038;6.992;2023-04-15T07:00:31;112171.53;;;-144.33;100.00
19843;BME280;10082;51.038;6.992;2023-04-15T07:02:59;112171.53;;;-144.33;100.00
19843;BME280;10082;51.038;6.992;2023-04-15T07:05:28;112171.53;;;-144.33;100.00
19843;BME280;10082;51.038;6.992;2023-04-15T07:07:55;112171.53;;;-144.33;100.00
19843;BME280;10082;51.038;6.992;2023-04-15T07:10:24;112171.53;;;-144.33;100.00
19843;BME280;10082;51.038;6.992;2023-04-15T07:12:51;112171.53;;;-144.33;100.00
19843;BME280;10082;51.038;6.992;2023-04-15T07:15:19;112171.53;;;-144.33;100.00
19843;BME280;10082;51.038;6.992;2023-04-15T07:17:46;112171.53;;;-144.33;100.00
19843;BME280;10082;51.038;6.992;2023-04-15T07:20:14;112171.53;;;-144.33;100.00
19843;BME280;10082;51.038;6.992;2023-04-15T07:22:41;112171.53;;;-144.33;100.00
19843;BME280;10082;51.038;6.992;2023-04-15T07:25:08;112171.53;;;-144.33;96.24
19843;BME280;10082;51.038;6.992;2023-04-15T07:27:37;112171.53;;;-144.33;88.20
19843;BME280;10082;51.038;6.992;2023-04-15T07:30:06;112171.53;;;-144.33;83.04
19843;BME280;10082;51.038;6.992;2023-04-15T07:32:36;112171.53;;;-144.33;80.01
19843;BME280;10082;51.038;6.992;2023-04-15T07:35:04;112171.53;;;-144.33;78.05
19843;BME280;10082;51.038;6.992;2023-04-15T07:37:32;112171.53;;;-144.33;76.64
19843;BME280;10082;51.038;6.992;2023-04-15T07:39:59;112171.53;;;-144.33;74.87
19843;BME280;10082;51.038;6.992;2023-04-15T07:42:26;112171.53;;;-144.33;72.41
19843;BME280;10082;51.038;6.992;2023-04-15T07:44:55;112171.53;;;-144.33;70.85
19843;BME280;10082;51.038;6.992;2023-04-15T07:47:22;112171.53;;;-144.33;69.23
19843;BME280;10082;51.038;6.992;2023-04-15T07:49:50;112171.53;;;-144.33;66.86
19843;BME280;10082;51.038;6.992;2023-04-15T07:52:17;112171.53;;;-144.33;64.23
19843;BME280;10082;51.038;6.992;2023-04-15T07:54:46;112171.53;;;-144.33;62.50
19843;BME280;10082;51.038;6.992;2023-04-15T07:57:13;112171.53;;;-144.33;64.95
19843;BME280;10082;51.038;6.992;2023-04-15T07:59:41;112171.53;;;-144.33;66.77
19843;BME280;10082;51.038;6.992;2023-04-15T08:02:10;112171.53;;;-144.33;64.84
19843;BME280;10082;51.038;6.992;2023-04-15T08:04:37;112171.53;;;-144.33;62.85
19843;BME280;10082;51.038;6.992;2023-04-15T08:07:05;112171.53;;;-144.33;63.20
19843;BME280;10082;51.038;6.992;2023-04-15T08:09:32;112171.53;;;-144.33;62.73
19843;BME280;10082;51.038;6.992;2023-04-15T08:11:59;112171.53;;;-144.33;62.77
19843;BME280;10082;51.038;6.992;2023-04-15T08:14:29;112171.53;;;-144.33;64.65
19843;BME280;10082;51.038;6.992;2023-04-15T08:16:56;112171.53;;;-144.33;68.38
19843;BME280;10082;51.038;6.992;2023-04-15T08:19:25;112171.53;;;-144.33;69.91
19843;BME280;10082;51.038;6.992;2023-04-15T08:21:52;112171.53;;;-144.33;68.74
19843;BME280;10082;51.038;6.992;2023-04-15T08:24:19;112171.53;;;-144.33;67.86
19843;BME280;10082;51.038;6.992;2023-04-15T08:26:46;112171.53;;;-144.33;64.86
19843;BME280;10082;51.038;6.992;2023-04-15T08:29:13;112171.53;;;-144.33;63.90
19843;BME280;10082;51.038;6.992;2023-04-15T08:31:40;112171.53;;;-144.33;62.26
19843;BME280;10082;51.038;6.992;2023-04-15T08:34:08;112171.53;;;-144.33;61.88
19843;BME280;10082;51.038;6.992;2023-04-15T08:36:36;112171.53;;;-144.33;61.19
19843;BME280;10082;51.038;6.992;2023-04-15T08:39:03;112171.53;;;-144.33;60.65
19843;BME280;10082;51.038;6.992;2023-04-15T08:41:36;112171.53;;;-144.33;61.04
19843;BME280;10082;51.038;6.992;2023-04-15T08:44:06;112171.53;;;-144.33;60.83
19843;BME280;10082;51.038;6.992;2023-04-15T08:46:33;112171.53;;;-144.33;61.51
19843;BME280;10082;51.038;6.992;2023-04-15T08:49:03;112171.53;;;-144.33;64.53
19843;BME280;10082;51.038;6.992;2023-04-15T08:51:31;112171.53;;;-144.33;64.70
19843;BME280;10082;51.038;6.992;2023-04-15T08:54:00;112171.53;;;-144.33;65.19
19843;BME280;10082;51.038;6.992;2023-04-15T08:56:29;112171.53;;;-144.33;63.81
19843;BME280;10082;51.038;6.992;2023-04-15T08:58:57;112171.53;;;-144.33;62.21
19843;BME280;10082;51.038;6.992;2023-04-15T09:01:25;112171.53;;;-144.33;60.58
19843;BME280;10082;51.038;6.992;2023-04-15T09:03:53;112171.53;;;-144.33;60.51
19843;BME280;10082;51.038;6.992;2023-04-15T09:06:21;112171.53;;;-144.33;61.05
19843;BME280;10082;51.038;6.992;2023-04-15T09:08:48;112171.53;;;-144.33;59.40
19843;BME280;10082;51.038;6.992;2023-04-15T09:11:18;112171.53;;;-144.33;56.72
19843;BME280;10082;51.038;6.992;2023-04-15T09:13:48;112171.53;;;-144.33;57.05
19843;BME280;10082;51.038;6.992;2023-04-15T09:16:16;112171.53;;;-144.33;61.59
19843;BME280;10082;51.038;6.992;2023-04-15T09:18:47;112171.53;;;-144.33;61.55
19843;BME280;10082;51.038;6.992;2023-04-15T09:21:18;112171.53;;;-144.33;61.97
19843;BME280;10082;51.038;6.992;2023-04-15T09:23:56;112171.53;;;-144.33;60.86
19843;BME280;10082;51.038;6.992;2023-04-15T09:26:32;112171.53;;;-144.33;63.18
19843;BME280;10082;51.038;6.992;2023-04-15T09:29:04;112171.53;;;-144.33;62.46
19843;BME280;10082;51.038;6.992;2023-04-15T09:31:32;112171.53;;;-144.33;62.51
19843;BME280;10082;51.038;6.992;2023-04-15T09:34:00;112171.53;;;-144.33;61.27
19843;BME280;10082;51.038;6.992;2023-04-15T09:36:27;112171.53;;;-144.33;63.15
19843;BME280;10082;51.038;6.992;2023-04-15T09:39:02;112171.53;;;-144.33;64.16
19843;BME280;10082;51.038;6.992;2023-04-15T09:41:31;112171.53;;;-144.33;64.09
19843;BME280;10082;51.038;6.992;2023-04-15T09:43:58;112171.53;;;-144.33;62.87
19843;BME280;10082;51.038;6.992;2023-04-15T09:46:39;112171.53;;;-144.33;62.01
19843;BME280;10082;51.038;6.992;2023-04-15T09:49:08;112171.53;;;-144.33;59.12
19843;BME280;10082;51.038;6.992;2023-04-15T09:51:35;112171.53;;;-144.33;59.88
19843;BME280;10082;51.038;6.992;2023-04-15T09:54:03;112171.53;;;-144.33;58.60
19843;BME280;10082;51.038;6.992;2023-04-15T09:56:33;112171.53;;;-144.33;53.75
19843;BME280;10082;51.038;6.992;2023-04-15T09:59:02;112171.53;;;-144.33;52.65
19843;BME280;10082;51.038;6.992;2023-04-15T10:01:29;112171.53;;;-144.33;60.52
19843;BME280;10082;51.038;6.992;2023-04-15T10:03:56;112171.53;;;-144.33;58.49
19843;BME280;10082;51.038;6.992;2023-04-15T10:06:24;112171.53;;;-144.33;63.72
19843;BME280;10082;51.038;6.992;2023-04-15T10:08:53;112171.53;;;-144.33;64.50
19843;BME280;10082;51.038;6.992;2023-04-15T10:11:21;112171.53;;;-144.33;62.94
19843;BME280;10082;51.038;6.992;2023-04-15T10:13:51;112171.53;;;-144.33;65.49
19843;BME280;10082;51.038;6.992;2023-04-15T10:16:19;112171.53;;;-144.33;67.19
19843;BME280;10082;51.038;6.992;2023-04-15T10:18:52;112171.53;;;-144.33;64.30
19843;BME280;10082;51.038;6.992;2023-04-15T10:21:20;112171.53;;;-144.33;65.98
19843;BME280;10082;51.038;6.992;2023-04-15T10:23:48;112171.53;;;-144.33;65.79
19843;BME280;10082;51.038;6.992;2023-04-15T10:26:15;112171.53;;;-144.33;64.58
19843;BME280;10082;51.038;6.992;2023-04-15T10:28:45;112171.53;;;-144.33;64.32
19843;BME280;10082;51.038;6.992;2023-04-15T10:31:15;112171.53;;;-144.33;62.26
19843;BME280;10082;51.038;6.992;2023-04-15T10:33:45;112171.53;;;-144.33;60.32
19843;BME280;10082;51.038;6.992;2023-04-15T10:36:13;112171.53;;;-144.33;61.90
19843;BME280;10082;51.038;6.992;2023-04-15T10:38:42;112171.53;;;-144.33;64.70
19843;BME280;10082;51.038;6.992;2023-04-15T10:41:14;112171.53;;;-144.33;65.54
19843;BME280;10082;51.038;6.992;2023-04-15T10:43:48;112171.53;;;-144.33;65.22
19843;BME280;10082;51.038;6.992;2023-04-15T10:46:23;112171.53;;;-144.33;67.26
19843;BME280;10082;51.038;6.992;2023-04-15T10:48:52;112171.53;;;-144.33;64.93
19843;BME280;10082;51.038;6.992;2023-04-15T10:51:27;112171.53;;;-144.33;65.14
19843;BME280;10082;51.038;6.992;2023-04-15T10:53:58;112171.53;;;-144.33;66.10
19843;BME280;10082;51.038;6.992;2023-04-15T10:56:27;112171.53;;;-144.33;66.89
19843;BME280;10082;51.038;6.992;2023-04-15T10:58:54;112171.53;;;-144.33;68.15
19843;BME280;10082;51.038;6.992;2023-04-15T11:01:48;112171.53;;;-144.33;69.77
19843;BME280;10082;51.038;6.992;2023-04-15T11:04:51;112171.53;;;-144.33;70.63
19843;BME280;10082;51.038;6.992;2023-04-15T11:07:35;112171.53;;;-144.33;69.98
19843;BME280;10082;51.038;6.992;2023-04-15T11:10:03;112171.53;;;-144.33;70.44
19843;BME280;10082;51.038;6.992;2023-04-15T11:12:33;112171.53;;;-144.33;70.14
19843;BME280;10082;51.038;6.992;2023-04-15T11:15:26;112171.53;;;-144.33;71.96
19843;BME280;10082;51.038;6.992;2023-04-15T11:17:55;112171.53;;;-144.33;72.93
19843;BME280;10082;51.038;6.992;2023-04-15T11:20:22;112171.53;;;-144.33;72.68
19843;BME280;10082;51.038;6.992;2023-04-15T11:22:51;112171.53;;;-144.33;70.20
19843;BME280;10082;51.038;6.992;2023-04-15T11:25:22;112171.53;;;-144.33;71.77
19843;BME280;10082;51.038;6.992;2023-04-15T11:27:51;112171.53;;;-144.33;69.94
19843;BME280;10082;51.038;6.992;2023-04-15T11:30:20;112171.53;;;-144.33;72.37
19843;BME280;10082;51.038;6.992;2023-04-15T11:32:48;112171.53;;;-144.33;72.81
19843;BME280;10082;51.038;6.992;2023-04-15T11:35:17;112171.53;;;-144.33;73.44
19843;BME280;10082;51.038;6.992;2023-04-15T11:37:45;112171.53;;;-144.33;73.04
19843;BME280;10082;51.038;6.992;2023-04-15T11:40:13;112171.53;;;-144.33;76.04
19843;BME280;10082;51.038;6.992;2023-04-15T11:42:42;112171.53;;;-144.33;75.84
19843;BME280;10082;51.038;6.992;2023-04-15T11:45:10;112171.53;;;-144.33;73.41
19843;BME280;10082;51.038;6.992;2023-04-15T11:47:38;112171.53;;;-144.33;71.33
19843;BME280;10082;51.038;6.992;2023-04-15T11:50:13;112171.53;;;-144.33;73.76
19843;BME280;10082;51.038;6.992;2023-04-15T11:52:51;112171.53;;;-144.33;76.65
19843;BME280;10082;51.038;6.992;2023-04-15T11:55:28;112171.53;;;-144.33;77.94
19843;BME280;10082;51.038;6.992;2023-04-15T11:58:07;112171.53;;;-144.33;76.91
19843;BME280;10082;51.038;6.992;2023-04-15T12:00:35;112171.53;;;-144.33;76.30
19843;BME280;10082;51.038;6.992;2023-04-15T12:03:20;112171.53;;;-144.33;77.00
19843;BME280;10082;51.038;6.992;2023-04-15T12:06:18;112171.53;;;-144.33;78.00
19843;BME280;10082;51.038;6.992;2023-04-15T12:11:33;112171.53;;;-144.33;80.96
19843;BME280;10082;51.038;6.992;2023-04-15T12:14:05;112171.53;;;-144.33;84.26
19843;BME280;10082;51.038;6.992;2023-04-15T12:16:40;112171.53;;;-144.33;86.51
19843;BME280;10082;51.038;6.992;2023-04-15T12:19:09;112171.53;;;-144.33;86.04
19843;BME280;10082;51.038;6.992;2023-04-15T12:21:39;112171.53;;;-144.33;86.00
19843;BME280;10082;51.038;6.992;2023-04-15T12:24:09;112171.53;;;-144.33;88.44
19843;BME280;10082;51.038;6.992;2023-04-15T12:26:42;112171.53;;;-144.33;88.74
19843;BME280;10082;51.038;6.992;2023-04-15T12:29:11;112171.53;;;-144.33;91.14
19843;BME280;10082;51.038;6.992;2023-04-15T12:31:46;112171.53;;;-144.33;91.48
19843;BME280;10082;51.038;6.992;2023-04-15T12:34:15;112171.53;;;-144.33;91.39
19843;BME280;10082;51.038;6.992;2023-04-15T12:36:43;112171.53;;;-144.33;93.27
19843;BME280;10082;51.038;6.992;2023-04-15T12:39:11;112171.53;;;-144.33;95.08
19843;BME280;10082;51.038;6.992;2023-04-15T12:41:38;112171.53;;;-144.33;95.29